sensor_id;sensor_type;location;lat;lon;timestamp;pressure;altitude;pressure_sealevel;temperature;humidity
16190;BME280;41754;51.498;7.540;2023-02-28T00:01:41;101691.19;;;8.56;34.42
16190;BME280;41754;51.498;7.540;2023-02-28T00:04:09;101686.28;;;8.58;34.76
16190;BME280;41754;51.498;7.540;2023-02-28T00:06:36;101689.09;;;8.73;34.16
16190;BME280;41754;51.498;7.540;2023-02-28T00:09:04;101690.72;;;9.06;33.59
16190;BME280;41754;51.498;7.540;2023-02-28T00:11:32;101697.56;;;8.29;34.63
16190;BME280;41754;51.498;7.540;2023-02-28T00:14:01;101698.03;;;8.90;34.11
16190;BME280;41754;51.498;7.540;2023-02-28T00:16:29;101690.31;;;8.82;33.84
16190;BME280;41754;51.498;7.540;2023-02-28T00:18:57;101691.84;;;8.36;34.85
16190;BME280;41754;51.498;7.540;2023-02-28T00:21:25;101691.97;;;8.88;34.09
16190;BME280;41754;51.498;7.540;2023-02-28T00:23:53;101695.09;;;8.65;34.49
16190;BME280;41754;51.498;7.540;2023-02-28T00:26:21;101686.63;;;8.34;34.89
16190;BME280;41754;51.498;7.540;2023-02-28T00:28:49;101694.50;;;8.58;34.47
16190;BME280;41754;51.498;7.540;2023-02-28T00:31:20;101689.81;;;8.21;35.24
16190;BME280;41754;51.498;7.540;2023-02-28T00:33:48;101687.19;;;8.73;34.51
16190;BME280;41754;51.498;7.540;2023-02-28T00:36:17;101692.81;;;8.20;35.33
16190;BME280;41754;51.498;7.540;2023-02-28T00:38:45;101694.09;;;7.80;36.17
16190;BME280;41754;51.498;7.540;2023-02-28T00:41:13;101691.28;;;8.71;34.88
16190;BME280;41754;51.498;7.540;2023-02-28T00:43:40;101687.69;;;8.65;34.92
16190;BME280;41754;51.498;7.540;2023-02-28T00:46:10;101685.63;;;9.30;33.27
16190;BME280;41754;51.498;7.540;2023-02-28T00:48:39;101681.13;;;9.14;33.81
16190;BME280;41754;51.498;7.540;2023-02-28T00:51:07;101685.34;;;8.79;34.42
16190;BME280;41754;51.498;7.540;2023-02-28T00:53:35;101687.66;;;8.28;35.35
16190;BME280;41754;51.498;7.540;2023-02-28T00:56:03;101693.56;;;8.10;35.66
16190;BME280;41754;51.498;7.540;2023-02-28T00:58:31;101690.44;;;7.74;36.23
16190;BME280;41754;51.498;7.540;2023-02-28T01:00:59;101692.94;;;8.03;36.19
16190;BME280;41754;51.498;7.540;2023-02-28T01:03:28;101694.81;;;7.97;36.47
16190;BME280;41754;51.498;7.540;2023-02-28T01:05:57;101695.72;;;8.08;36.40
16190;BME280;41754;51.498;7.540;2023-02-28T01:08:25;101696.41;;;8.57;35.23
16190;BME280;41754;51.498;7.540;2023-02-28T01:10:54;101695.00;;;7.91;36.02
16190;BME280;41754;51.498;7.540;2023-02-28T01:13:22;101697.88;;;8.33;35.70
16190;BME280;41754;51.498;7.540;2023-02-28T01:15:51;101686.22;;;8.53;34.91
16190;BME280;41754;51.498;7.540;2023-02-28T01:18:21;101686.06;;;8.69;34.74
16190;BME280;41754;51.498;7.540;2023-02-28T01:20:49;101685.84;;;8.76;34.48
16190;BME280;41754;51.498;7.540;2023-02-28T01:23:19;101684.09;;;8.65;34.50
16190;BME280;41754;51.498;7.540;2023-02-28T01:25:48;101684.34;;;8.21;35.12
16190;BME280;41754;51.498;7.540;2023-02-28T01:28:16;101676.03;;;8.43;35.07
16190;BME280;41754;51.498;7.540;2023-02-28T01:30:47;101686.34;;;8.68;34.01
16190;BME280;41754;51.498;7.540;2023-02-28T01:33:15;101677.47;;;8.56;34.90
16190;BME280;41754;51.498;7.540;2023-02-28T01:35:43;101690.63;;;8.16;35.21
16190;BME280;41754;51.498;7.540;2023-02-28T01:38:11;101684.97;;;7.25;36.67
16190;BME280;41754;51.498;7.540;2023-02-28T01:40:50;101681.78;;;7.55;36.42
16190;BME280;41754;51.498;7.540;2023-02-28T01:43:22;101682.63;;;6.95;37.67
16190;BME280;41754;51.498;7.540;2023-02-28T01:45:51;101684.38;;;7.94;35.85
16190;BME280;41754;51.498;7.540;2023-02-28T01:48:20;101676.72;;;7.69;36.44
16190;BME280;41754;51.498;7.540;2023-02-28T01:50:49;101672.09;;;8.34;35.08
16190;BME280;41754;51.498;7.540;2023-02-28T01:53:29;101674.53;;;8.30;34.80
16190;BME280;41754;51.498;7.540;2023-02-28T01:55:59;101682.19;;;7.96;35.76
16190;BME280;41754;51.498;7.540;2023-02-28T01:58:28;101677.88;;;7.78;35.92
16190;BME280;41754;51.498;7.540;2023-02-28T02:00:55;101681.03;;;7.65;35.90
16190;BME280;41754;51.498;7.540;2023-02-28T02:03:25;101677.72;;;8.17;35.04
16190;BME280;41754;51.498;7.540;2023-02-28T02:05:53;101672.84;;;8.24;34.85
16190;BME280;41754;51.498;7.540;2023-02-28T02:08:23;101672.06;;;7.97;35.44
16190;BME280;41754;51.498;7.540;2023-02-28T02:10:52;101673.06;;;7.64;36.32
16190;BME280;41754;51.498;7.540;2023-02-28T02:13:37;101676.34;;;7.39;36.54
16190;BME280;41754;51.498;7.540;2023-02-28T02:16:19;101672.50;;;7.62;36.24
16190;BME280;41754;51.498;7.540;2023-02-28T02:18:53;101669.94;;;8.04;35.76
16190;BME280;41754;51.498;7.540;2023-02-28T02:22:02;101662.69;;;8.25;34.95
16190;BME280;41754;51.498;7.540;2023-02-28T02:24:55;101664.16;;;7.73;36.06
16190;BME280;41754;51.498;7.540;2023-02-28T02:27:35;101661.47;;;7.29;36.90
16190;BME280;41754;51.498;7.540;2023-02-28T02:30:32;101655.72;;;8.12;35.68
16190;BME280;41754;51.498;7.540;2023-02-28T02:33:28;101659.34;;;7.85;36.14
16190;BME280;41754;51.498;7.540;2023-02-28T02:36:12;101664.38;;;7.67;36.18
16190;BME280;41754;51.498;7.540;2023-02-28T02:38:47;101666.38;;;8.40;34.91
16190;BME280;41754;51.498;7.540;2023-02-28T02:41:19;101665.53;;;8.40;34.59
16190;BME280;41754;51.498;7.540;2023-02-28T02:43:53;101667.94;;;7.67;35.59
16190;BME280;41754;51.498;7.540;2023-02-28T02:46:29;101666.47;;;7.59;36.17
16190;BME280;41754;51.498;7.540;2023-02-28T02:49:00;101670.47;;;7.52;36.00
16190;BME280;41754;51.498;7.540;2023-02-28T02:51:32;101660.78;;;7.66;35.93
16190;BME280;41754;51.498;7.540;2023-02-28T02:54:04;101661.72;;;8.04;34.89
16190;BME280;41754;51.498;7.540;2023-02-28T02:56:35;101658.34;;;8.29;34.59
16190;BME280;41754;51.498;7.540;2023-02-28T02:59:09;101666.22;;;8.20;34.94
16190;BME280;41754;51.498;7.540;2023-02-28T03:01:40;101665.78;;;8.33;34.57
16190;BME280;41754;51.498;7.540;2023-02-28T03:04:11;101679.31;;;7.81;35.21
16190;BME280;41754;51.498;7.540;2023-02-28T03:06:42;101665.78;;;8.01;34.90
16190;BME280;41754;51.498;7.540;2023-02-28T03:09:10;101666.97;;;7.29;36.18
16190;BME280;41754;51.498;7.540;2023-02-28T03:11:39;101662.78;;;8.03;34.97
16190;BME280;41754;51.498;7.540;2023-02-28T03:14:20;101660.88;;;7.27;36.45
16190;BME280;41754;51.498;7.540;2023-02-28T03:17:00;101657.44;;;6.77;37.28
16190;BME280;41754;51.498;7.540;2023-02-28T03:19:47;101657.81;;;7.02;37.36
16190;BME280;41754;51.498;7.540;2023-02-28T03:22:47;101656.78;;;7.52;36.11
16190;BME280;41754;51.498;7.540;2023-02-28T03:25:25;101657.31;;;7.27;37.03
16190;BME280;41754;51.498;7.540;2023-02-28T03:28:00;101660.28;;;7.69;35.76
16190;BME280;41754;51.498;7.540;2023-02-28T03:30:36;101655.13;;;7.51;35.23
16190;BME280;41754;51.498;7.540;2023-02-28T03:33:09;101658.94;;;6.12;37.71
16190;BME280;41754;51.498;7.540;2023-02-28T03:35:42;101659.50;;;6.48;37.57
16190;BME280;41754;51.498;7.540;2023-02-28T03:38:16;101660.00;;;6.11;38.43
16190;BME280;41754;51.498;7.540;2023-02-28T03:40:48;101654.28;;;6.29;38.01
16190;BME280;41754;51.498;7.540;2023-02-28T03:43:20;101659.00;;;6.89;36.97
16190;BME280;41754;51.498;7.540;2023-02-28T03:45:51;101663.78;;;6.60;37.63
16190;BME280;41754;51.498;7.540;2023-02-28T03:48:22;101667.88;;;6.80;37.39
16190;BME280;41754;51.498;7.540;2023-02-28T03:50:54;101673.41;;;5.96;38.27
16190;BME280;41754;51.498;7.540;2023-02-28T03:53:27;101661.50;;;6.35;38.00
16190;BME280;41754;51.498;7.540;2023-02-28T03:55:59;101665.91;;;6.20;38.55
16190;BME280;41754;51.498;7.540;2023-02-28T03:58:34;101661.91;;;5.65;39.41
16190;BME280;41754;51.498;7.540;2023-02-28T04:01:07;101666.19;;;5.44;40.11
16190;BME280;41754;51.498;7.540;2023-02-28T04:03:37;101671.38;;;5.46;40.32
16190;BME280;41754;51.498;7.540;2023-02-28T04:06:07;101670.91;;;5.49;40.24
16190;BME280;41754;51.498;7.540;2023-02-28T04:08:37;101669.47;;;5.75;39.61
16190;BME280;41754;51.498;7.540;2023-02-28T04:11:11;101667.97;;;6.46;37.89
16190;BME280;41754;51.498;7.540;2023-02-28T04:13:42;101669.94;;;6.34;38.29
16190;BME280;41754;51.498;7.540;2023-02-28T04:16:13;101670.72;;;6.85;36.73
16190;BME280;41754;51.498;7.540;2023-02-28T04:19:00;101669.31;;;7.04;36.82
16190;BME280;41754;51.498;7.540;2023-02-28T04:21:29;101667.38;;;6.44;37.73
16190;BME280;41754;51.498;7.540;2023-02-28T04:23:59;101667.66;;;7.03;36.81
16190;BME280;41754;51.498;7.540;2023-02-28T04:26:28;101664.56;;;6.94;36.52
16190;BME280;41754;51.498;7.540;2023-02-28T04:28:57;101664.16;;;6.86;36.57
16190;BME280;41754;51.498;7.540;2023-02-28T04:31:26;101666.97;;;6.35;37.74
16190;BME280;41754;51.498;7.540;2023-02-28T04:33:54;101665.88;;;6.92;36.64
16190;BME280;41754;51.498;7.540;2023-02-28T04:36:22;101677.28;;;6.67;36.52
16190;BME280;41754;51.498;7.540;2023-02-28T04:38:51;101670.25;;;6.71;36.91
16190;BME280;41754;51.498;7.540;2023-02-28T04:41:20;101685.78;;;6.32;37.23
16190;BME280;41754;51.498;7.540;2023-02-28T04:43:50;101680.34;;;6.54;36.94
16190;BME280;41754;51.498;7.540;2023-02-28T04:46:18;101680.31;;;6.32;37.58
16190;BME280;41754;51.498;7.540;2023-02-28T04:48:47;101681.19;;;6.54;37.00
16190;BME280;41754;51.498;7.540;2023-02-28T04:51:16;101680.03;;;6.50;37.26
16190;BME280;41754;51.498;7.540;2023-02-28T04:53:44;101684.28;;;6.07;37.97
16190;BME280;41754;51.498;7.540;2023-02-28T04:56:15;101673.31;;;6.41;37.69
16190;BME280;41754;51.498;7.540;2023-02-28T04:58:45;101676.75;;;6.31;37.52
16190;BME280;41754;51.498;7.540;2023-02-28T05:01:18;101675.00;;;6.25;37.48
16190;BME280;41754;51.498;7.540;2023-02-28T05:03:47;101680.47;;;5.80;38.35
16190;BME280;41754;51.498;7.540;2023-02-28T05:06:16;101686.31;;;6.17;38.17
16190;BME280;41754;51.498;7.540;2023-02-28T05:08:44;101683.50;;;6.29;37.27
16190;BME280;41754;51.498;7.540;2023-02-28T05:11:16;101688.50;;;6.49;37.34
16190;BME280;41754;51.498;7.540;2023-02-28T05:13:46;101693.94;;;6.15;37.59
16190;BME280;41754;51.498;7.540;2023-02-28T05:16:14;101688.91;;;6.07;38.09
16190;BME280;41754;51.498;7.540;2023-02-28T05:18:42;101685.03;;;6.36;37.88
16190;BME280;41754;51.498;7.540;2023-02-28T05:21:23;101686.25;;;5.27;39.98
16190;BME280;41754;51.498;7.540;2023-02-28T05:23:51;101693.63;;;6.11;38.46
16190;BME280;41754;51.498;7.540;2023-02-28T05:26:20;101693.25;;;5.91;38.67
16190;BME280;41754;51.498;7.540;2023-02-28T05:28:49;101687.41;;;5.31;40.23
16190;BME280;41754;51.498;7.540;2023-02-28T05:31:17;101689.91;;;5.32;40.21
16190;BME280;41754;51.498;7.540;2023-02-28T05:33:45;101695.31;;;5.56;39.66
16190;BME280;41754;51.498;7.540;2023-02-28T05:36:13;101704.19;;;5.91;39.21
16190;BME280;41754;51.498;7.540;2023-02-28T05:38:41;101698.69;;;5.74;39.05
16190;BME280;41754;51.498;7.540;2023-02-28T05:41:10;101705.25;;;6.19;38.36
16190;BME280;41754;51.498;7.540;2023-02-28T05:43:38;101710.00;;;5.95;38.66
16190;BME280;41754;51.498;7.540;2023-02-28T05:46:08;101701.22;;;5.36;39.99
16190;BME280;41754;51.498;7.540;2023-02-28T05:48:38;101708.97;;;5.56;39.54
16190;BME280;41754;51.498;7.540;2023-02-28T05:51:07;101708.19;;;6.00;38.84
16190;BME280;41754;51.498;7.540;2023-02-28T05:53:35;101709.38;;;5.76;39.33
16190;BME280;41754;51.498;7.540;2023-02-28T05:56:04;101709.13;;;6.23;38.22
16190;BME280;41754;51.498;7.540;2023-02-28T05:58:32;101707.03;;;6.30;37.74
16190;BME280;41754;51.498;7.540;2023-02-28T06:01:20;101718.25;;;5.83;38.77
16190;BME280;41754;51.498;7.540;2023-02-28T06:03:50;101706.84;;;5.86;38.49
16190;BME280;41754;51.498;7.540;2023-02-28T06:06:18;101712.81;;;6.17;37.91
16190;BME280;41754;51.498;7.540;2023-02-28T06:08:46;101710.59;;;6.13;37.75
16190;BME280;41754;51.498;7.540;2023-02-28T06:11:14;101722.81;;;5.66;39.25
16190;BME280;41754;51.498;7.540;2023-02-28T06:13:42;101719.00;;;5.67;39.02
16190;BME280;41754;51.498;7.540;2023-02-28T06:16:11;101719.41;;;5.87;38.66
16190;BME280;41754;51.498;7.540;2023-02-28T06:18:40;101723.75;;;5.71;38.83
16190;BME280;41754;51.498;7.540;2023-02-28T06:21:08;101721.09;;;6.05;38.37
16190;BME280;41754;51.498;7.540;2023-02-28T06:23:36;101730.13;;;5.48;39.15
16190;BME280;41754;51.498;7.540;2023-02-28T06:26:04;101728.88;;;5.96;38.31
16190;BME280;41754;51.498;7.540;2023-02-28T06:28:32;101721.47;;;6.42;37.40
16190;BME280;41754;51.498;7.540;2023-02-28T06:31:06;101736.06;;;6.31;37.28
16190;BME280;41754;51.498;7.540;2023-02-28T06:33:34;101736.06;;;6.31;37.33
16190;BME280;41754;51.498;7.540;2023-02-28T06:36:04;101735.63;;;6.05;37.50
16190;BME280;41754;51.498;7.540;2023-02-28T06:38:33;101729.56;;;5.75;37.63
16190;BME280;41754;51.498;7.540;2023-02-28T06:41:01;101738.16;;;5.95;38.26
16190;BME280;41754;51.498;7.540;2023-02-28T06:43:31;101736.00;;;6.43;37.23
16190;BME280;41754;51.498;7.540;2023-02-28T06:46:01;101737.44;;;6.17;37.44
16190;BME280;41754;51.498;7.540;2023-02-28T06:48:29;101739.00;;;6.12;37.30
16190;BME280;41754;51.498;7.540;2023-02-28T06:51:06;101736.03;;;5.57;39.43
16190;BME280;41754;51.498;7.540;2023-02-28T06:53:35;101744.78;;;5.99;38.61
16190;BME280;41754;51.498;7.540;2023-02-28T06:56:04;101742.50;;;5.68;38.87
16190;BME280;41754;51.498;7.540;2023-02-28T06:58:33;101750.50;;;6.43;37.65
16190;BME280;41754;51.498;7.540;2023-02-28T07:01:02;101741.53;;;6.31;37.50
16190;BME280;41754;51.498;7.540;2023-02-28T07:03:30;101747.06;;;6.36;37.71
16190;BME280;41754;51.498;7.540;2023-02-28T07:06:00;101739.13;;;6.51;37.15
16190;BME280;41754;51.498;7.540;2023-02-28T07:08:29;101751.47;;;6.70;36.68
16190;BME280;41754;51.498;7.540;2023-02-28T07:10:59;101740.00;;;6.06;37.76
16190;BME280;41754;51.498;7.540;2023-02-28T07:13:27;101748.59;;;5.98;37.46
16190;BME280;41754;51.498;7.540;2023-02-28T07:15:55;101747.13;;;6.24;37.28
16190;BME280;41754;51.498;7.540;2023-02-28T07:18:23;101755.72;;;5.71;37.80
16190;BME280;41754;51.498;7.540;2023-02-28T07:20:52;101759.59;;;6.03;37.40
16190;BME280;41754;51.498;7.540;2023-02-28T07:23:20;101758.34;;;5.54;38.71
16190;BME280;41754;51.498;7.540;2023-02-28T07:25:50;101759.81;;;5.85;37.87
16190;BME280;41754;51.498;7.540;2023-02-28T07:28:18;101766.19;;;5.91;38.27
16190;BME280;41754;51.498;7.540;2023-02-28T07:30:46;101773.97;;;6.27;37.59
16190;BME280;41754;51.498;7.540;2023-02-28T07:33:14;101768.69;;;6.37;37.58
16190;BME280;41754;51.498;7.540;2023-02-28T07:35:42;101766.88;;;6.43;37.59
16190;BME280;41754;51.498;7.540;2023-02-28T07:38:10;101764.72;;;6.45;37.80
16190;BME280;41754;51.498;7.540;2023-02-28T07:40:40;101764.72;;;6.79;37.30
16190;BME280;41754;51.498;7.540;2023-02-28T07:43:09;101771.41;;;6.21;38.34
16190;BME280;41754;51.498;7.540;2023-02-28T07:45:37;101765.25;;;7.14;37.05
16190;BME280;41754;51.498;7.540;2023-02-28T07:48:05;101768.53;;;7.99;35.64
16190;BME280;41754;51.498;7.540;2023-02-28T07:50:33;101772.31;;;7.27;36.92
16190;BME280;41754;51.498;7.540;2023-02-28T07:53:01;101760.41;;;7.82;35.68
16190;BME280;41754;51.498;7.540;2023-02-28T07:55:29;101760.75;;;7.42;35.92
16190;BME280;41754;51.498;7.540;2023-02-28T07:57:57;101757.41;;;7.40;36.13
16190;BME280;41754;51.498;7.540;2023-02-28T08:00:26;101769.16;;;7.57;35.58
16190;BME280;41754;51.498;7.540;2023-02-28T08:02:55;101766.97;;;7.37;36.47
16190;BME280;41754;51.498;7.540;2023-02-28T08:05:23;101769.19;;;8.06;35.40
16190;BME280;41754;51.498;7.540;2023-02-28T08:07:51;101764.00;;;8.09;35.64
16190;BME280;41754;51.498;7.540;2023-02-28T08:10:19;101761.56;;;8.13;34.29
16190;BME280;41754;51.498;7.540;2023-02-28T08:12:47;101767.47;;;7.78;35.50
16190;BME280;41754;51.498;7.540;2023-02-28T08:15:15;101771.56;;;7.32;36.49
16190;BME280;41754;51.498;7.540;2023-02-28T08:17:44;101769.00;;;6.91;36.83
16190;BME280;41754;51.498;7.540;2023-02-28T08:20:12;101763.22;;;6.88;37.21
16190;BME280;41754;51.498;7.540;2023-02-28T08:22:40;101766.88;;;7.98;35.48
16190;BME280;41754;51.498;7.540;2023-02-28T08:25:11;101771.97;;;7.62;35.79
16190;BME280;41754;51.498;7.540;2023-02-28T08:27:39;101774.66;;;8.06;35.29
16190;BME280;41754;51.498;7.540;2023-02-28T08:30:09;101774.84;;;8.26;34.53
16190;BME280;41754;51.498;7.540;2023-02-28T08:32:38;101779.66;;;8.41;34.49
16190;BME280;41754;51.498;7.540;2023-02-28T08:35:08;101772.69;;;9.29;32.88
16190;BME280;41754;51.498;7.540;2023-02-28T08:37:37;101776.47;;;8.22;32.71
16190;BME280;41754;51.498;7.540;2023-02-28T08:40:06;101773.78;;;9.91;31.39
16190;BME280;41754;51.498;7.540;2023-02-28T08:42:34;101765.94;;;9.57;32.02
16190;BME280;41754;51.498;7.540;2023-02-28T08:45:02;101773.47;;;9.87;31.12
16190;BME280;41754;51.498;7.540;2023-02-28T08:47:30;101778.56;;;9.53;30.86
16190;BME280;41754;51.498;7.540;2023-02-28T08:49:58;101770.56;;;10.25;30.67
16190;BME280;41754;51.498;7.540;2023-02-28T08:52:27;101777.09;;;9.35;31.13
16190;BME280;41754;51.498;7.540;2023-02-28T08:54:55;101770.25;;;10.06;30.56
16190;BME280;41754;51.498;7.540;2023-02-28T08:57:23;101772.09;;;9.80;31.22
16190;BME280;41754;51.498;7.540;2023-02-28T08:59:52;101771.72;;;10.79;29.85
16190;BME280;41754;51.498;7.540;2023-02-28T09:02:20;101779.03;;;10.08;30.27
16190;BME280;41754;51.498;7.540;2023-02-28T09:04:48;101771.03;;;9.96;30.33
16190;BME280;41754;51.498;7.540;2023-02-28T09:07:16;101768.13;;;10.84;29.45
16190;BME280;41754;51.498;7.540;2023-02-28T09:09:45;101764.56;;;10.53;29.00
16190;BME280;41754;51.498;7.540;2023-02-28T09:12:21;101762.34;;;10.30;29.31
16190;BME280;41754;51.498;7.540;2023-02-28T09:14:49;101765.34;;;10.23;28.63
16190;BME280;41754;51.498;7.540;2023-02-28T09:17:17;101768.13;;;10.54;29.45
16190;BME280;41754;51.498;7.540;2023-02-28T09:19:46;101770.31;;;10.72;28.56
16190;BME280;41754;51.498;7.540;2023-02-28T09:22:15;101768.63;;;10.25;28.81
16190;BME280;41754;51.498;7.540;2023-02-28T09:24:44;101765.06;;;11.06;28.46
16190;BME280;41754;51.498;7.540;2023-02-28T09:27:12;101765.09;;;10.75;28.58
16190;BME280;41754;51.498;7.540;2023-02-28T09:29:40;101768.13;;;10.33;28.57
16190;BME280;41754;51.498;7.540;2023-02-28T09:32:08;101759.59;;;10.55;27.97
16190;BME280;41754;51.498;7.540;2023-02-28T09:34:36;101761.78;;;10.84;27.63
16190;BME280;41754;51.498;7.540;2023-02-28T09:37:04;101759.75;;;11.35;27.48
16190;BME280;41754;51.498;7.540;2023-02-28T09:39:32;101761.53;;;11.75;27.56
16190;BME280;41754;51.498;7.540;2023-02-28T09:42:02;101758.50;;;10.56;26.86
16190;BME280;41754;51.498;7.540;2023-02-28T09:44:35;101773.06;;;10.87;27.39
16190;BME280;41754;51.498;7.540;2023-02-28T09:47:08;101765.66;;;10.52;27.33
16190;BME280;41754;51.498;7.540;2023-02-28T09:49:40;101765.94;;;10.56;27.72
16190;BME280;41754;51.498;7.540;2023-02-28T09:52:12;101760.97;;;10.58;27.49
16190;BME280;41754;51.498;7.540;2023-02-28T09:54:42;101769.22;;;10.88;27.65
16190;BME280;41754;51.498;7.540;2023-02-28T09:57:21;101774.97;;;11.07;26.94
16190;BME280;41754;51.498;7.540;2023-02-28T10:00:03;101778.88;;;10.70;27.93
16190;BME280;41754;51.498;7.540;2023-02-28T10:02:48;101779.16;;;11.84;26.33
16190;BME280;41754;51.498;7.540;2023-02-28T10:05:19;101778.50;;;12.08;26.21
16190;BME280;41754;51.498;7.540;2023-02-28T10:07:55;101776.53;;;11.54;26.68
16190;BME280;41754;51.498;7.540;2023-02-28T10:10:32;101778.47;;;11.48;26.72
16190;BME280;41754;51.498;7.540;2023-02-28T10:13:06;101771.59;;;11.46;26.23
16190;BME280;41754;51.498;7.540;2023-02-28T10:15:40;101761.22;;;10.87;27.22
16190;BME280;41754;51.498;7.540;2023-02-28T10:18:13;101763.44;;;10.85;27.03
16190;BME280;41754;51.498;7.540;2023-02-28T10:20:43;101751.63;;;10.79;25.53
16190;BME280;41754;51.498;7.540;2023-02-28T10:23:17;101750.78;;;12.28;25.41
16190;BME280;41754;51.498;7.540;2023-02-28T10:25:52;101752.41;;;11.90;24.26
16190;BME280;41754;51.498;7.540;2023-02-28T10:28:25;101752.66;;;12.33;24.45
16190;BME280;41754;51.498;7.540;2023-02-28T10:30:54;101747.34;;;11.53;24.76
16190;BME280;41754;51.498;7.540;2023-02-28T10:33:24;101741.44;;;12.19;24.38
16190;BME280;41754;51.498;7.540;2023-02-28T10:35:53;101740.25;;;11.86;24.36
16190;BME280;41754;51.498;7.540;2023-02-28T10:38:23;101739.25;;;12.89;23.48
16190;BME280;41754;51.498;7.540;2023-02-28T10:40:51;101739.41;;;12.69;23.36
16190;BME280;41754;51.498;7.540;2023-02-28T10:43:31;101742.19;;;13.45;22.74
16190;BME280;41754;51.498;7.540;2023-02-28T10:46:02;101730.91;;;13.18;23.31
16190;BME280;41754;51.498;7.540;2023-02-28T10:48:37;101740.94;;;12.12;22.91
16190;BME280;41754;51.498;7.540;2023-02-28T10:51:07;101738.94;;;12.22;23.01
16190;BME280;41754;51.498;7.540;2023-02-28T10:53:39;101732.72;;;12.75;22.81
16190;BME280;41754;51.498;7.540;2023-02-28T10:56:26;101725.25;;;13.04;22.57
16190;BME280;41754;51.498;7.540;2023-02-28T10:58:57;101730.91;;;13.18;22.56
16190;BME280;41754;51.498;7.540;2023-02-28T11:01:35;101729.16;;;13.03;22.44
16190;BME280;41754;51.498;7.540;2023-02-28T11:04:16;101731.25;;;13.11;22.02
16190;BME280;41754;51.498;7.540;2023-02-28T11:06:44;101739.72;;;13.44;22.40
16190;BME280;41754;51.498;7.540;2023-02-28T11:09:20;101731.72;;;15.89;20.69
16190;BME280;41754;51.498;7.540;2023-02-28T11:11:51;101725.53;;;17.04;18.51
16190;BME280;41754;51.498;7.540;2023-02-28T11:14:22;101715.34;;;17.39;17.77
16190;BME280;41754;51.498;7.540;2023-02-28T11:16:52;101718.59;;;19.23;16.37
16190;BME280;41754;51.498;7.540;2023-02-28T11:19:24;101720.53;;;20.11;15.53
16190;BME280;41754;51.498;7.540;2023-02-28T11:21:55;101719.16;;;21.53;15.38
16190;BME280;41754;51.498;7.540;2023-02-28T11:24:27;101705.94;;;19.25;15.50
16190;BME280;41754;51.498;7.540;2023-02-28T11:26:56;101713.50;;;19.54;15.72
16190;BME280;41754;51.498;7.540;2023-02-28T11:29:27;101721.31;;;19.40;16.31
16190;BME280;41754;51.498;7.540;2023-02-28T11:32:03;101711.19;;;21.18;14.59
16190;BME280;41754;51.498;7.540;2023-02-28T11:34:31;101704.47;;;20.08;15.21
16190;BME280;41754;51.498;7.540;2023-02-28T11:37:01;101708.72;;;21.05;15.04
16190;BME280;41754;51.498;7.540;2023-02-28T11:39:32;101719.59;;;20.07;15.42
16190;BME280;41754;51.498;7.540;2023-02-28T11:42:16;101705.16;;;17.74;16.98
16190;BME280;41754;51.498;7.540;2023-02-28T11:45:03;101703.53;;;18.17;17.30
16190;BME280;41754;51.498;7.540;2023-02-28T11:47:42;101713.47;;;16.78;18.20
16190;BME280;41754;51.498;7.540;2023-02-28T11:50:33;101698.47;;;16.87;18.02
16190;BME280;41754;51.498;7.540;2023-02-28T11:53:12;101697.91;;;19.24;16.71
16190;BME280;41754;51.498;7.540;2023-02-28T11:55:45;101703.69;;;18.03;17.78
16190;BME280;41754;51.498;7.540;2023-02-28T11:58:31;101703.16;;;17.09;17.90
16190;BME280;41754;51.498;7.540;2023-02-28T12:01:14;101696.34;;;17.33;18.02
16190;BME280;41754;51.498;7.540;2023-02-28T12:03:58;101688.28;;;18.05;17.88
16190;BME280;41754;51.498;7.540;2023-02-28T12:06:33;101684.25;;;19.31;16.44
16190;BME280;41754;51.498;7.540;2023-02-28T12:09:20;101691.53;;;17.47;17.88
16190;BME280;41754;51.498;7.540;2023-02-28T12:11:57;101693.84;;;15.93;19.24
16190;BME280;41754;51.498;7.540;2023-02-28T12:14:49;101692.34;;;16.54;18.89
16190;BME280;41754;51.498;7.540;2023-02-28T12:17:37;101688.09;;;17.59;19.01
16190;BME280;41754;51.498;7.540;2023-02-28T12:20:17;101683.66;;;17.58;18.10
16190;BME280;41754;51.498;7.540;2023-02-28T12:22:53;101678.22;;;18.74;17.48
16190;BME280;41754;51.498;7.540;2023-02-28T12:25:39;101680.13;;;18.26;18.09
16190;BME280;41754;51.498;7.540;2023-02-28T12:28:14;101673.38;;;19.00;16.34
16190;BME280;41754;51.498;7.540;2023-02-28T12:30:50;101664.78;;;19.43;16.11
16190;BME280;41754;51.498;7.540;2023-02-28T12:33:26;101658.63;;;18.18;17.17
16190;BME280;41754;51.498;7.540;2023-02-28T12:35:58;101661.97;;;18.84;17.70
16190;BME280;41754;51.498;7.540;2023-02-28T12:38:29;101655.63;;;19.05;16.72
16190;BME280;41754;51.498;7.540;2023-02-28T12:41:01;101655.47;;;16.93;18.15
16190;BME280;41754;51.498;7.540;2023-02-28T12:43:33;101658.13;;;17.47;19.30
16190;BME280;41754;51.498;7.540;2023-02-28T12:46:07;101652.47;;;16.28;18.87
16190;BME280;41754;51.498;7.540;2023-02-28T12:48:41;101649.31;;;17.79;18.09
16190;BME280;41754;51.498;7.540;2023-02-28T12:51:11;101647.06;;;16.54;18.69
16190;BME280;41754;51.498;7.540;2023-02-28T12:53:52;101650.34;;;16.02;19.23
16190;BME280;41754;51.498;7.540;2023-02-28T12:56:31;101633.44;;;17.80;18.11
16190;BME280;41754;51.498;7.540;2023-02-28T12:59:03;101629.47;;;17.55;18.57
16190;BME280;41754;51.498;7.540;2023-02-28T13:01:46;101625.03;;;18.23;17.75
16190;BME280;41754;51.498;7.540;2023-02-28T13:04:34;101632.59;;;17.62;18.12
16190;BME280;41754;51.498;7.540;2023-02-28T13:09:59;101629.91;;;19.58;16.07
16190;BME280;41754;51.498;7.540;2023-02-28T13:12:29;101615.16;;;22.07;14.23
16190;BME280;41754;51.498;7.540;2023-02-28T13:15:05;101619.41;;;20.63;15.25
16190;BME280;41754;51.498;7.540;2023-02-28T13:17:39;101616.28;;;19.98;15.73
16190;BME280;41754;51.498;7.540;2023-02-28T13:20:17;101609.66;;;18.34;17.56
16190;BME280;41754;51.498;7.540;2023-02-28T13:22:47;101618.19;;;18.03;17.92
16190;BME280;41754;51.498;7.540;2023-02-28T13:25:49;101612.00;;;18.71;18.03